Time;durP1;ratioP1;P1;durP2;ratioP2;P2;SDS_P1;SDS_P2;PMS_P1;PMS_P2;Temp;Humidity;BMP_temperature;BMP_pressure;BME280_temperature;BME280_humidity;BME280_pressure;Samples;Min_cycle;Max_cycle;Signal;HPM_P1;HPM_P2
2021/03/08 00:00:15;;;;;;;27.60;14.75;;;;;;;2.76;67.28;101958.63;5040334;28;20049;-66
2021/03/08 00:02:41;;;;;;;25.65;13.57;;;;;;;2.77;67.17;101960.38;5041048;28;20190;-66
2021/03/08 00:05:13;;;;;;;28.33;14.95;;;;;;;2.72;67.71;101975.63;5039632;28;20460;-66
2021/03/08 00:07:39;;;;;;;24.38;13.55;;;;;;;2.70;67.63;101979.84;5038826;28;20048;-66
2021/03/08 00:10:06;;;;;;;26.30;13.13;;;;;;;2.67;67.59;101984.00;5037778;28;20045;-67
2021/03/08 00:12:32;;;;;;;24.45;13.68;;;;;;;2.60;67.81;101981.22;5041656;28;20425;-66
2021/03/08 00:14:58;;;;;;;30.27;16.30;;;;;;;2.67;67.84;101973.72;5038376;28;20132;-65
2021/03/08 00:17:24;;;;;;;27.60;14.50;;;;;;;2.70;67.75;101982.41;5038794;28;20152;-65
2021/03/08 00:19:50;;;;;;;26.98;14.05;;;;;;;2.79;67.63;101984.41;5038050;28;20056;-67
2021/03/08 00:22:17;;;;;;;26.95;13.98;;;;;;;2.88;67.29;101989.84;5037446;28;20049;-66
2021/03/08 00:24:43;;;;;;;28.90;14.32;;;;;;;2.90;66.98;101982.19;5039231;28;20049;-66
2021/03/08 00:27:09;;;;;;;29.75;14.10;;;;;;;2.98;66.90;101985.88;5038165;28;20110;-66
2021/03/08 00:29:35;;;;;;;27.20;14.20;;;;;;;3.05;66.63;101981.81;5038336;28;20419;-65
2021/03/08 00:32:01;;;;;;;24.42;14.07;;;;;;;3.07;66.28;101978.47;5039613;28;20049;-66
2021/03/08 00:34:27;;;;;;;30.00;15.35;;;;;;;3.03;66.10;101981.78;5039339;28;20446;-65
2021/03/08 00:36:54;;;;;;;30.58;14.90;;;;;;;3.03;65.84;101979.19;5036975;28;20076;-66
2021/03/08 00:39:21;;;;;;;29.40;16.60;;;;;;;2.96;66.72;101972.09;5038855;28;20057;-66
2021/03/08 00:41:47;;;;;;;30.15;15.95;;;;;;;2.93;66.40;101970.31;5037310;28;20041;-66
2021/03/08 00:44:13;;;;;;;30.95;15.02;;;;;;;2.96;66.41;101972.09;5037681;28;20469;-66
2021/03/08 00:46:39;;;;;;;30.30;16.00;;;;;;;2.99;66.41;101971.34;5040210;28;20103;-66
2021/03/08 00:49:05;;;;;;;28.42;15.80;;;;;;;2.95;66.10;101973.81;5039391;28;20052;-65
2021/03/08 00:51:31;;;;;;;32.60;17.20;;;;;;;2.95;66.21;101968.66;5037480;28;20045;-67
2021/03/08 00:53:57;;;;;;;29.98;16.60;;;;;;;2.87;66.69;101966.66;5036295;28;20056;-66
2021/03/08 00:56:23;;;;;;;29.65;16.88;;;;;;;2.89;66.71;101970.16;5039009;28;20210;-66
2021/03/08 00:58:49;;;;;;;30.35;15.63;;;;;;;2.91;66.71;101971.09;5039795;28;20083;-66
2021/03/08 01:01:15;;;;;;;28.45;16.60;;;;;;;2.89;67.18;101972.72;5038142;28;20479;-67
2021/03/08 01:03:41;;;;;;;35.42;17.67;;;;;;;2.91;67.13;101968.53;5038469;28;20442;-66
2021/03/08 01:06:07;;;;;;;31.30;16.38;;;;;;;2.89;67.14;101965.03;5033462;28;20052;-66
2021/03/08 01:08:33;;;;;;;30.75;16.58;;;;;;;2.89;67.25;101962.44;5038055;28;20102;-66
2021/03/08 01:10:59;;;;;;;32.88;17.70;;;;;;;2.90;67.11;101962.50;5039067;28;20079;-66
2021/03/08 01:13:26;;;;;;;31.65;17.10;;;;;;;2.86;67.71;101964.91;5038297;28;20052;-67
2021/03/08 01:15:52;;;;;;;31.58;16.45;;;;;;;2.93;67.20;101962.59;5038739;28;20056;-66
2021/03/08 01:18:19;;;;;;;33.83;17.95;;;;;;;2.93;67.02;101964.31;5037971;28;20046;-67
2021/03/08 01:20:45;;;;;;;30.73;17.30;;;;;;;2.92;67.01;101960.00;5038391;28;20525;-66
2021/03/08 01:23:11;;;;;;;33.00;17.25;;;;;;;2.92;66.92;101958.28;5040197;28;20041;-66
2021/03/08 01:25:38;;;;;;;34.78;17.70;;;;;;;2.90;67.43;101957.34;5042038;28;20061;-66
2021/03/08 01:28:05;;;;;;;30.98;16.80;;;;;;;2.89;67.81;101957.31;5040321;28;20166;-65
2021/03/08 01:30:34;;;;;;;32.63;19.55;;;;;;;2.86;67.54;101954.63;5040923;28;20037;-66
2021/03/08 01:33:00;;;;;;;36.03;18.02;;;;;;;2.90;67.32;101953.91;5038876;28;20052;-66
2021/03/08 01:35:26;;;;;;;34.55;18.25;;;;;;;2.87;67.57;101952.13;5043295;28;20107;-66
2021/03/08 01:37:52;;;;;;;33.13;18.20;;;;;;;2.87;67.90;101946.09;5040214;28;20040;-68
2021/03/08 01:40:21;;;;;;;36.00;19.40;;;;;;;2.83;67.83;101955.41;5037658;28;20064;-66
2021/03/08 01:42:47;;;;;;;36.42;19.88;;;;;;;2.82;68.35;101948.53;5035934;28;20051;-66
2021/03/08 01:45:16;;;;;;;39.28;20.08;;;;;;;2.85;67.95;101952.88;5037351;28;20076;-65
2021/03/08 01:47:44;;;;;;;43.28;20.38;;;;;;;2.83;68.28;101954.56;5038480;28;20057;-66
2021/03/08 01:50:14;;;;;;;40.13;20.80;;;;;;;2.80;68.02;101956.19;5043003;28;20060;-65
2021/03/08 01:52:40;;;;;;;36.95;19.90;;;;;;;2.79;68.65;101946.75;5037025;28;20045;-66
2021/03/08 01:55:07;;;;;;;42.17;21.25;;;;;;;2.80;68.75;101945.91;5038537;28;20052;-66
2021/03/08 01:57:34;;;;;;;38.03;20.20;;;;;;;2.79;68.94;101944.16;5039211;28;20049;-66
2021/03/08 02:00:00;;;;;;;37.05;20.60;;;;;;;2.79;68.66;101943.31;5033778;28;20150;-66
2021/03/08 02:02:26;;;;;;;36.78;19.73;;;;;;;2.78;69.06;101939.84;5037252;28;20041;-65
2021/03/08 02:04:53;;;;;;;38.45;20.05;;;;;;;2.78;68.99;101937.28;5037441;28;20904;-66
2021/03/08 02:07:19;;;;;;;36.33;19.98;;;;;;;2.79;69.13;101941.59;5037883;28;20049;-66
2021/03/08 02:09:45;;;;;;;39.92;21.35;;;;;;;2.77;69.28;101939.81;5036951;28;20075;-66
2021/03/08 02:12:23;;;;;;;38.55;20.85;;;;;;;2.78;69.29;101934.72;5040142;28;20049;-67
2021/03/08 02:15:02;;;;;;;38.63;20.38;;;;;;;2.77;69.47;101930.38;5035440;28;20064;-66
2021/03/08 02:17:34;;;;;;;37.70;19.08;;;;;;;2.77;69.54;101935.53;5038291;28;20158;-66
2021/03/08 02:20:29;;;;;;;39.33;20.77;;;;;;;2.76;69.32;101928.63;5036460;28;20051;-66
2021/03/08 02:23:26;;;;;;;44.42;20.83;;;;;;;2.80;69.90;101925.38;5037037;28;20052;-66
2021/03/08 02:26:22;;;;;;;41.25;21.45;;;;;;;2.83;69.37;101923.72;5048251;28;20057;-66
2021/03/08 02:29:05;;;;;;;38.33;21.08;;;;;;;2.84;69.81;101922.91;5054344;28;20426;-66
2021/03/08 02:31:33;;;;;;;40.45;21.42;;;;;;;2.82;69.40;101911.69;5038552;28;20841;-66
2021/03/08 02:34:03;;;;;;;39.13;22.27;;;;;;;2.80;69.70;101906.47;5036444;28;20054;-65
2021/03/08 02:36:33;;;;;;;40.83;21.48;;;;;;;2.82;69.81;101904.84;5035504;28;20051;-66
2021/03/08 02:39:03;;;;;;;40.95;20.77;;;;;;;2.84;69.93;101903.19;5034527;28;20057;-67
2021/03/08 02:41:31;;;;;;;40.95;21.23;;;;;;;2.84;70.31;101900.63;5036428;28;20083;-68
2021/03/08 02:44:00;;;;;;;43.65;22.75;;;;;;;2.85;70.39;101904.06;5037811;28;20060;-66
2021/03/08 02:46:29;;;;;;;39.63;22.05;;;;;;;2.84;70.27;101898.06;5035140;28;20052;-66
2021/03/08 02:48:58;;;;;;;40.58;22.00;;;;;;;2.79;70.85;101902.19;5035758;28;20049;-66
2021/03/08 02:51:28;;;;;;;43.17;20.63;;;;;;;2.79;70.68;101899.63;5036782;28;20387;-67
2021/03/08 02:53:58;;;;;;;40.88;21.33;;;;;;;2.83;70.74;101898.88;5035879;28;20048;-66
2021/03/08 02:56:28;;;;;;;43.38;22.67;;;;;;;2.80;70.49;101899.66;5036841;28;20506;-66
2021/03/08 02:58:56;;;;;;;43.38;21.88;;;;;;;2.81;70.81;101895.38;5035571;28;20040;-66
2021/03/08 03:01:22;;;;;;;44.53;21.45;;;;;;;2.77;70.81;101886.72;5035146;28;20060;-66
2021/03/08 03:03:51;;;;;;;40.17;22.40;;;;;;;2.77;70.92;101891.84;5036618;28;20152;-66
2021/03/08 03:06:20;;;;;;;40.85;22.23;;;;;;;2.80;70.48;101893.63;5034617;28;20434;-66
2021/03/08 03:08:47;;;;;;;43.95;23.38;;;;;;;2.83;70.47;101898.03;5038669;28;20053;-66
2021/03/08 03:11:14;;;;;;;43.90;23.17;;;;;;;2.76;70.64;101897.81;5036307;28;20510;-66
2021/03/08 03:13:43;;;;;;;40.72;22.40;;;;;;;2.79;70.78;101892.78;5038170;28;20045;-66
2021/03/08 03:16:10;;;;;;;43.33;22.88;;;;;;;2.71;71.20;101893.34;5034063;28;20060;-65
2021/03/08 03:18:39;;;;;;;41.97;21.77;;;;;;;2.74;70.63;101891.78;5036955;28;20045;-65
2021/03/08 03:21:08;;;;;;;44.75;22.90;;;;;;;2.73;71.51;101900.31;5036071;28;20056;-65
2021/03/08 03:23:38;;;;;;;46.10;23.25;;;;;;;2.72;71.16;101898.56;5033650;28;20048;-66
2021/03/08 03:26:06;;;;;;;44.30;21.60;;;;;;;2.73;71.48;101897.72;5037496;28;20057;-65
2021/03/08 03:28:33;;;;;;;45.65;22.80;;;;;;;2.70;71.48;101897.63;5036297;28;20056;-66
2021/03/08 03:30:59;;;;;;;46.88;22.67;;;;;;;2.66;71.91;101897.47;5035083;28;20041;-66
2021/03/08 03:33:27;;;;;;;49.00;24.40;;;;;;;2.61;71.91;101897.34;5033445;28;20057;-66
2021/03/08 03:35:53;;;;;;;44.42;22.67;;;;;;;2.64;72.58;101905.16;5033923;28;20075;-66
2021/03/08 03:38:20;;;;;;;43.63;23.20;;;;;;;2.60;72.32;101898.16;5034948;28;20048;-66
2021/03/08 03:40:49;;;;;;;44.30;24.20;;;;;;;2.57;72.70;101895.47;5037454;28;20053;-66
2021/03/08 03:43:15;;;;;;;46.80;24.80;;;;;;;2.50;72.85;101894.41;5034161;28;20104;-66
2021/03/08 03:45:41;;;;;;;48.63;24.40;;;;;;;2.53;72.91;101904.78;5036536;28;20098;-65
2021/03/08 03:48:08;;;;;;;48.08;24.45;;;;;;;2.56;72.79;101907.47;5037766;28;20064;-65
2021/03/08 03:50:34;;;;;;;45.05;23.60;;;;;;;2.56;73.17;101914.28;5033157;28;20383;-65
2021/03/08 03:53:00;;;;;;;42.85;23.23;;;;;;;2.59;73.39;101911.81;5035959;28;20053;-65
2021/03/08 03:55:27;;;;;;;41.03;22.55;;;;;;;2.61;73.07;101911.03;5037099;28;20049;-66
2021/03/08 03:58:05;;;;;;;43.00;22.77;;;;;;;2.60;73.01;101904.16;5036967;28;20091;-65
2021/03/08 04:00:37;;;;;;;50.08;23.83;;;;;;;2.66;72.64;101911.19;5032350;28;20063;-65
2021/03/08 04:03:07;;;;;;;48.38;25.63;;;;;;;2.61;72.83;101910.19;5036649;28;23092;-66
2021/03/08 04:05:34;;;;;;;47.75;22.85;;;;;;;2.55;72.84;101912.53;5037598;28;20525;-65
2021/03/08 04:08:03;;;;;;;48.20;23.30;;;;;;;2.55;73.27;101912.53;5036842;28;20049;-66
2021/03/08 04:10:31;;;;;;;49.55;24.92;;;;;;;2.52;73.04;101917.59;5037485;28;20053;-65
2021/03/08 04:13:03;;;;;;;46.40;24.60;;;;;;;2.46;73.31;101920.81;5042419;28;20060;-65
2021/03/08 04:15:30;;;;;;;48.95;24.60;;;;;;;2.50;73.47;101909.81;5039848;28;20041;-66
2021/03/08 04:17:57;;;;;;;51.92;25.73;;;;;;;2.50;73.64;101914.94;5038734;28;20041;-65
2021/03/08 04:20:26;;;;;;;50.63;25.25;;;;;;;2.42;73.88;101918.97;5037731;28;20477;-65
2021/03/08 04:22:53;;;;;;;49.38;25.88;;;;;;;2.42;74.01;101922.41;5040082;28;20060;-65
2021/03/08 04:25:20;;;;;;;52.50;23.80;;;;;;;2.43;73.82;101915.56;5036914;28;20045;-65
2021/03/08 04:27:47;;;;;;;51.65;25.52;;;;;;;2.39;73.87;101914.59;5038127;28;20112;-65
2021/03/08 04:30:15;;;;;;;48.40;24.85;;;;;;;2.38;74.14;101923.13;5040843;28;20045;-65
2021/03/08 04:32:42;;;;;;;56.10;24.98;;;;;;;2.34;74.29;101916.16;5039046;28;20072;-66
2021/03/08 04:35:11;;;;;;;51.55;25.45;;;;;;;2.34;74.46;101913.59;5038005;28;20057;-66
2021/03/08 04:37:39;;;;;;;50.55;25.60;;;;;;;2.26;74.50;101918.44;5039084;28;20069;-65
2021/03/08 04:40:07;;;;;;;51.00;26.25;;;;;;;2.28;74.83;101921.94;5041161;28;20064;-64
2021/03/08 04:42:33;;;;;;;55.70;26.48;;;;;;;2.29;74.59;101922.81;5038401;28;20044;-65
2021/03/08 04:44:59;;;;;;;52.65;26.70;;;;;;;2.28;74.97;101927.09;5036564;28;20045;-66
2021/03/08 04:47:26;;;;;;;55.75;26.50;;;;;;;2.30;74.77;101932.25;5035792;28;20049;-66
2021/03/08 04:49:54;;;;;;;51.00;25.63;;;;;;;2.29;75.05;101936.53;5034623;28;20517;-66
2021/03/08 04:52:22;;;;;;;55.50;26.15;;;;;;;2.33;74.47;101929.81;5036550;28;20057;-65
2021/03/08 04:54:49;;;;;;;51.83;24.73;;;;;;;2.31;74.80;101926.31;5039656;28;20052;-65
2021/03/08 04:57:19;;;;;;;54.75;25.23;;;;;;;2.33;74.81;101932.38;5035859;28;20560;-65
2021/03/08 04:59:47;;;;;;;50.75;24.75;;;;;;;2.36;74.88;101931.59;5039699;28;20052;-65
2021/03/08 05:02:15;;;;;;;54.33;26.35;;;;;;;2.37;74.88;101929.06;5045095;28;20045;-65
2021/03/08 05:04:46;;;;;;;58.80;27.55;;;;;;;2.34;74.97;101926.41;5041292;28;20664;-68
2021/03/08 05:07:13;;;;;;;56.60;27.90;;;;;;;2.36;74.92;101922.19;5036305;28;20426;-65
2021/03/08 05:09:39;;;;;;;54.03;27.42;;;;;;;2.36;74.89;101924.75;5041051;28;20566;-65
2021/03/08 05:12:09;;;;;;;52.85;27.00;;;;;;;2.36;74.93;101927.31;5037231;28;20051;-64
2021/03/08 05:14:38;;;;;;;56.28;27.20;;;;;;;2.42;74.87;101932.69;5036637;28;20064;-65
2021/03/08 05:17:06;;;;;;;54.72;27.27;;;;;;;2.41;74.76;101935.19;5037567;28;20049;-66
2021/03/08 05:19:34;;;;;;;51.40;25.13;;;;;;;2.38;74.82;101935.97;5036595;28;20052;-66
2021/03/08 05:22:01;;;;;;;54.42;26.92;;;;;;;2.38;75.00;101935.09;5038311;28;22010;-66
2021/03/08 05:24:28;;;;;;;52.28;27.00;;;;;;;2.36;75.07;101926.47;5038741;28;20414;-66
2021/03/08 05:26:55;;;;;;;56.25;26.65;;;;;;;2.33;75.36;101929.81;5038071;28;20045;-66
2021/03/08 05:29:21;;;;;;;56.63;27.02;;;;;;;2.33;75.53;101925.53;5039517;28;20060;-66
2021/03/08 05:31:48;;;;;;;52.80;26.30;;;;;;;2.35;75.19;101928.13;5057524;28;20048;-67
2021/03/08 05:34:17;;;;;;;52.63;25.83;;;;;;;2.37;75.27;101939.34;5046227;28;20570;-66
2021/03/08 05:36:45;;;;;;;58.30;27.20;;;;;;;2.37;75.40;101930.78;5038002;28;20044;-66
2021/03/08 05:39:12;;;;;;;53.58;26.23;;;;;;;2.39;74.98;101924.88;5035323;28;20098;-67
2021/03/08 05:41:53;;;;;;;58.75;27.50;;;;;;;2.35;75.70;101924.72;5039029;28;20044;-66
2021/03/08 05:44:22;;;;;;;60.22;28.13;;;;;;;2.37;75.31;101926.50;5039882;28;20049;-67
2021/03/08 05:47:14;;;;;;;54.17;28.58;;;;;;;2.38;75.46;101929.97;5036375;28;20041;-65
2021/03/08 05:50:01;;;;;;;57.72;27.08;;;;;;;2.34;75.42;101931.56;5040459;28;20037;-67
2021/03/08 05:52:51;;;;;;;51.83;27.73;;;;;;;2.37;75.48;101930.78;5037627;28;20052;-66
2021/03/08 05:55:48;;;;;;;58.90;27.85;;;;;;;2.39;75.23;101922.31;5033143;28;20049;-66
2021/03/08 05:58:32;;;;;;;54.58;29.00;;;;;;;2.42;75.49;101926.66;5033693;28;20422;-66
2021/03/08 06:01:11;;;;;;;54.83;28.35;;;;;;;2.49;75.12;101923.50;5037244;28;20057;-67
2021/03/08 06:04:03;;;;;;;57.00;28.88;;;;;;;2.45;75.16;101932.78;5036484;28;20071;-66
2021/03/08 06:07:01;;;;;;;66.55;31.05;;;;;;;2.40;75.41;101936.88;5032727;28;20426;-66
2021/03/08 06:09:28;;;;;;;60.92;30.05;;;;;;;2.39;75.66;101942.84;5042448;28;20053;-66
2021/03/08 06:12:05;;;;;;;61.80;28.50;;;;;;;2.35;75.80;101940.13;5037679;28;20052;-66
2021/03/08 06:14:40;;;;;;;66.55;31.30;;;;;;;2.33;75.51;101946.06;5037834;28;20045;-67
2021/03/08 06:17:07;;;;;;;66.95;32.10;;;;;;;2.34;75.50;101944.41;5038562;28;20092;-65
2021/03/08 06:19:34;;;;;;;58.42;31.48;;;;;;;2.34;75.84;101944.41;5037448;28;20045;-66
2021/03/08 06:22:01;;;;;;;67.30;32.42;;;;;;;2.32;75.86;101946.88;5036472;28;20037;-67
2021/03/08 06:24:28;;;;;;;60.03;30.52;;;;;;;2.37;75.80;101959.03;5037959;28;20053;-64
2021/03/08 06:26:55;;;;;;;63.25;31.65;;;;;;;2.27;76.39;101953.56;5037868;28;20048;-66
2021/03/08 06:29:23;;;;;;;67.32;31.92;;;;;;;2.33;76.37;101965.75;5036919;28;20103;-66
2021/03/08 06:31:50;;;;;;;61.10;31.02;;;;;;;2.39;76.21;101953.13;5035691;28;20045;-65
2021/03/08 06:34:16;;;;;;;66.25;30.42;;;;;;;2.39;76.30;101953.13;5037410;28;21098;-66
2021/03/08 06:36:44;;;;;;;60.22;30.27;;;;;;;2.48;76.16;101962.84;5036839;28;20052;-67
2021/03/08 06:39:11;;;;;;;66.13;31.77;;;;;;;2.56;74.85;101957.94;5038406;28;20048;-66
2021/03/08 06:41:37;;;;;;;63.33;31.58;;;;;;;2.61;75.19;101964.13;5037100;28;20062;-65
2021/03/08 06:44:03;;;;;;;61.47;30.15;;;;;;;2.59;74.97;101964.09;5033498;28;20063;-65
2021/03/08 06:46:31;;;;;;;64.20;30.95;;;;;;;2.61;74.86;101959.84;5038050;28;20053;-64
2021/03/08 06:48:57;;;;;;;65.28;33.63;;;;;;;2.56;75.10;101965.63;5042235;28;20046;-65
2021/03/08 06:51:23;;;;;;;61.20;32.28;;;;;;;2.54;75.35;101965.59;5050999;28;20119;-66
2021/03/08 06:53:49;;;;;;;65.28;30.80;;;;;;;2.53;75.71;101969.00;5045142;28;20044;-65
2021/03/08 06:56:17;;;;;;;63.60;31.63;;;;;;;2.53;75.57;101973.28;5037405;28;20059;-66
2021/03/08 06:58:44;;;;;;;62.10;32.13;;;;;;;2.59;75.36;101982.06;5040922;28;20052;-67
2021/03/08 07:01:31;;;;;;;70.35;33.70;;;;;;;2.60;75.71;101972.66;5031973;28;20053;-66
2021/03/08 07:03:58;;;;;;;67.90;32.30;;;;;;;2.61;75.86;101980.38;5035425;28;20061;-65
2021/03/08 07:06:24;;;;;;;68.07;33.42;;;;;;;2.68;75.31;101978.91;5036694;28;20060;-66
2021/03/08 07:08:50;;;;;;;70.22;32.03;;;;;;;2.73;75.26;101979.94;5036971;28;20056;-66
2021/03/08 07:11:22;;;;;;;70.03;34.67;;;;;;;2.77;74.71;101983.50;5037867;28;20051;-66
2021/03/08 07:13:48;;;;;;;68.63;33.20;;;;;;;2.76;74.90;101992.88;5036713;28;20597;-66
2021/03/08 07:16:14;;;;;;;68.63;34.63;;;;;;;2.78;75.22;101993.81;5034227;28;20083;-66
2021/03/08 07:18:41;;;;;;;67.40;33.95;;;;;;;2.82;75.07;101997.34;5035480;28;20053;-65
2021/03/08 07:21:15;;;;;;;69.70;33.10;;;;;;;2.86;74.66;101993.19;5034466;28;20041;-65
2021/03/08 07:23:42;;;;;;;66.70;33.28;;;;;;;2.86;74.89;101995.75;5037367;28;20049;-66
2021/03/08 07:26:10;;;;;;;63.45;32.67;;;;;;;2.86;75.10;101996.63;5033229;28;20052;-67
2021/03/08 07:28:36;;;;;;;70.30;34.00;;;;;;;2.87;74.88;102000.97;5034586;28;20053;-66
2021/03/08 07:31:02;;;;;;;62.85;33.05;;;;;;;2.93;74.69;102008.00;5035499;28;20061;-66
2021/03/08 07:33:28;;;;;;;72.88;33.30;;;;;;;2.91;75.16;102009.63;5036626;28;20049;-67
2021/03/08 07:35:55;;;;;;;66.38;34.33;;;;;;;2.97;74.64;102012.41;5052991;22;20155;-66
2021/03/08 07:38:32;;;;;;;75.35;35.75;;;;;;;3.06;74.50;102020.41;5048744;28;20045;-65
2021/03/08 07:41:13;;;;;;;65.47;34.63;;;;;;;3.10;74.06;102022.25;5053434;28;20049;-64
2021/03/08 07:43:39;;;;;;;67.47;33.45;;;;;;;3.01;74.55;102019.41;5055396;28;20049;-65
2021/03/08 07:46:06;;;;;;;74.70;33.00;;;;;;;3.04;74.92;102013.47;5061179;28;20048;-65
2021/03/08 07:48:32;;;;;;;63.22;32.45;;;;;;;3.04;74.81;102013.47;5058946;28;20045;-66
2021/03/08 07:51:06;;;;;;;65.60;32.88;;;;;;;3.16;74.04;102015.56;5057577;28;20159;-65
2021/03/08 07:53:34;;;;;;;68.35;32.83;;;;;;;3.15;74.02;102019.84;5059120;28;20151;-66
2021/03/08 07:56:01;;;;;;;70.68;34.55;;;;;;;3.14;74.26;102017.22;5059381;28;20056;-65
2021/03/08 07:58:29;;;;;;;70.20;33.38;;;;;;;3.20;74.08;102020.00;5055381;28;20052;-65
2021/03/08 08:00:55;;;;;;;65.85;33.30;;;;;;;3.23;73.73;102020.97;5058984;28;20048;-65
2021/03/08 08:03:21;;;;;;;66.60;33.50;;;;;;;3.24;73.93;102027.00;5057066;28;20057;-66
2021/03/08 08:05:52;;;;;;;64.97;31.95;;;;;;;3.28;73.62;102033.09;5059332;28;20623;-65
2021/03/08 08:08:20;;;;;;;69.43;33.78;;;;;;;3.27;73.79;102034.78;5059021;28;20056;-66
2021/03/08 08:10:52;;;;;;;66.00;33.53;;;;;;;3.32;73.50;102019.50;5057369;28;20413;-65
2021/03/08 08:13:20;;;;;;;67.32;33.42;;;;;;;3.31;73.49;102018.63;5063626;28;20470;-66
2021/03/08 08:15:48;;;;;;;65.93;35.45;;;;;;;3.32;73.45;102028.09;5059264;28;20052;-65
2021/03/08 08:18:17;;;;;;;66.78;32.83;;;;;;;3.28;73.46;102025.38;5059470;28;20683;-65
2021/03/08 08:20:45;;;;;;;65.38;32.80;;;;;;;3.32;73.56;102022.97;5058407;28;20049;-64
2021/03/08 08:23:14;;;;;;;74.20;35.38;;;;;;;3.42;73.74;102019.84;5056722;28;20070;-66
2021/03/08 08:25:44;;;;;;;68.18;35.00;;;;;;;3.46;73.45;102025.06;5058592;28;20060;-67
2021/03/08 08:28:10;;;;;;;69.72;35.75;;;;;;;3.50;73.06;102019.19;5056573;28;20056;-66
2021/03/08 08:30:36;;;;;;;69.75;34.20;;;;;;;3.50;73.22;102020.06;5059411;28;20049;-68
2021/03/08 08:33:03;;;;;;;69.15;35.08;;;;;;;3.54;73.28;102021.06;5055422;28;20104;-66
2021/03/08 08:35:31;;;;;;;66.85;33.75;;;;;;;3.56;73.02;102017.69;5058440;28;20052;-67
2021/03/08 08:38:20;;;;;;;64.40;33.08;;;;;;;3.52;73.74;102014.97;5060933;28;20441;-66
2021/03/08 08:40:48;;;;;;;63.38;33.25;;;;;;;3.62;73.64;102016.13;5059507;28;20097;-66
2021/03/08 08:43:21;;;;;;;62.90;33.38;;;;;;;3.62;72.92;102017.00;5058131;28;20052;-66
2021/03/08 08:45:49;;;;;;;67.47;34.65;;;;;;;3.68;73.48;102021.47;5059354;28;20068;-67
2021/03/08 08:48:16;;;;;;;66.10;33.88;;;;;;;3.74;72.83;102022.50;5060473;28;20048;-66
2021/03/08 08:50:47;;;;;;;66.05;33.55;;;;;;;3.79;72.98;102014.94;5060090;28;20084;-65
2021/03/08 08:53:42;;;;;;;65.82;33.50;;;;;;;3.86;72.69;102014.28;5062449;28;20048;-66
2021/03/08 08:56:09;;;;;;;60.53;32.15;;;;;;;4.00;71.89;102012.13;5060911;28;20053;-66
2021/03/08 08:58:45;;;;;;;64.15;33.20;;;;;;;4.00;71.63;102019.84;5064574;28;20040;-64
2021/03/08 09:04:10;;;;;;;66.53;32.35;;;;;;;4.01;71.60;102019.00;5059171;28;20052;-66
2021/03/08 09:06:47;;;;;;;61.88;32.75;;;;;;;4.06;71.77;102016.56;5060275;28;20051;-65
2021/03/08 09:09:15;;;;;;;64.15;34.83;;;;;;;4.07;71.85;102022.56;5062425;28;20087;-66
2021/03/08 09:11:43;;;;;;;60.55;33.17;;;;;;;4.07;72.03;102018.31;5067351;28;20044;-66
2021/03/08 09:14:33;;;;;;;71.55;34.45;;;;;;;4.09;72.34;102019.25;5061788;28;20048;-66
2021/03/08 09:17:13;;;;;;;65.65;33.47;;;;;;;4.14;71.95;102021.94;5060819;28;20048;-65
2021/03/08 09:19:41;;;;;;;70.93;33.42;;;;;;;4.18;71.17;102018.59;5060387;28;20139;-66
2021/03/08 09:22:33;;;;;;;60.97;32.17;;;;;;;4.19;71.89;102015.19;5061579;28;20048;-66
2021/03/08 09:25:02;;;;;;;63.72;32.05;;;;;;;4.29;71.30;102012.06;5062915;28;20124;-65
2021/03/08 09:27:30;;;;;;;63.40;32.88;;;;;;;4.36;71.10;102011.38;5064577;28;20067;-66
2021/03/08 09:30:02;;;;;;;61.15;32.58;;;;;;;4.38;71.25;102013.13;5060570;28;20041;-65
2021/03/08 09:32:29;;;;;;;59.83;31.67;;;;;;;4.38;71.50;102014.00;5062520;28;20052;-65
2021/03/08 09:34:59;;;;;;;71.63;32.30;;;;;;;4.40;71.22;102014.91;5061426;28;20048;-65
2021/03/08 09:37:26;;;;;;;63.20;32.17;;;;;;;4.38;71.33;102016.59;5063063;28;20059;-65
2021/03/08 09:39:53;;;;;;;68.30;33.60;;;;;;;4.46;71.15;102019.34;5058973;28;20075;-65
2021/03/08 09:42:20;;;;;;;65.60;31.13;;;;;;;4.45;71.98;102015.03;5060874;28;20052;-66
2021/03/08 09:44:48;;;;;;;59.83;31.33;;;;;;;4.51;71.31;102017.78;5059561;28;20048;-66
2021/03/08 09:47:14;;;;;;;64.80;33.45;;;;;;;4.55;71.48;102014.44;5063207;28;20040;-66
2021/03/08 09:49:48;;;;;;;61.70;33.47;;;;;;;4.64;71.47;102014.69;5064754;28;20057;-66
2021/03/08 09:52:30;;;;;;;65.10;31.65;;;;;;;4.73;70.92;102014.06;5062517;28;20048;-66
2021/03/08 09:54:56;;;;;;;71.85;34.83;;;;;;;4.82;70.79;102011.72;5056921;28;20072;-67
2021/03/08 09:57:34;;;;;;;61.92;32.40;;;;;;;4.86;70.56;102015.22;5059245;28;20486;-65
2021/03/08 10:00:01;;;;;;;61.10;34.10;;;;;;;4.84;70.22;102014.34;5062270;28;20057;-66
2021/03/08 10:02:27;;;;;;;68.28;34.60;;;;;;;4.90;70.07;102017.06;5063584;28;20054;-65
2021/03/08 10:04:54;;;;;;;62.40;32.28;;;;;;;5.04;70.17;102014.81;5062923;28;20681;-65
2021/03/08 10:07:21;;;;;;;63.97;32.67;;;;;;;5.15;69.36;102017.66;5055378;28;20053;-66
2021/03/08 10:09:47;;;;;;;63.13;33.05;;;;;;;5.14;68.93;102023.66;5062327;28;20044;-65
2021/03/08 10:12:13;;;;;;;64.03;33.58;;;;;;;5.15;69.16;102015.06;5059702;28;20044;-66
2021/03/08 10:14:40;;;;;;;57.72;32.50;;;;;;;5.24;69.01;102015.28;5056689;28;20049;-66
2021/03/08 10:17:06;;;;;;;60.08;32.20;;;;;;;5.27;68.67;102017.94;5060992;28;20170;-65
2021/03/08 10:19:34;;;;;;;62.22;33.38;;;;;;;5.33;68.78;102017.22;5057075;28;20691;-66
2021/03/08 10:22:00;;;;;;;63.22;32.78;;;;;;;5.43;68.72;102018.31;5057884;28;20516;-66
2021/03/08 10:24:33;;;;;;;60.75;32.40;;;;;;;5.43;68.30;102014.00;5062935;28;20045;-66
2021/03/08 10:27:00;;;;;;;59.13;32.47;;;;;;;5.61;68.00;102017.84;5060107;28;20070;-64
2021/03/08 10:29:26;;;;;;;62.72;32.22;;;;;;;5.69;67.35;102018.88;5059755;28;20068;-66
2021/03/08 10:31:53;;;;;;;60.75;32.22;;;;;;;5.68;67.38;102014.56;5061456;28;20410;-66
2021/03/08 10:34:20;;;;;;;63.83;32.10;;;;;;;5.66;68.06;102017.94;5060504;28;20045;-66
2021/03/08 10:36:48;;;;;;;59.13;31.75;;;;;;;5.71;66.96;102021.50;5060880;28;20066;-65
2021/03/08 10:39:15;;;;;;;71.63;33.75;;;;;;;5.78;67.14;102018.22;5057411;28;20503;-65
2021/03/08 10:41:43;;;;;;;60.97;32.95;;;;;;;5.87;67.36;102018.41;5055697;28;20464;-66
2021/03/08 10:44:17;;;;;;;62.92;32.95;;;;;;;5.85;66.67;102017.50;5062142;28;20059;-65
2021/03/08 10:46:43;;;;;;;64.20;33.30;;;;;;;6.04;66.92;102012.72;5062203;28;20076;-66
2021/03/08 10:49:11;;;;;;;58.70;33.58;;;;;;;6.01;66.86;102010.97;5061434;28;20498;-66
2021/03/08 10:51:38;;;;;;;70.32;35.67;;;;;;;6.12;65.87;102016.38;5059916;28;20048;-67
2021/03/08 10:54:06;;;;;;;58.28;33.20;;;;;;;6.15;66.09;102016.41;5056312;28;20043;-66
2021/03/08 10:56:34;;;;;;;67.32;34.75;;;;;;;6.24;66.45;102017.44;5061376;28;23674;-65
2021/03/08 10:59:00;;;;;;;56.17;31.50;;;;;;;6.25;66.16;102016.59;5056266;28;20101;-67
2021/03/08 11:01:29;;;;;;;60.35;32.72;;;;;;;6.29;66.08;102026.16;5056208;28;20056;-67
2021/03/08 11:03:55;;;;;;;64.05;33.25;;;;;;;6.37;65.50;102016.81;5054945;28;20044;-66
2021/03/08 11:06:23;;;;;;;62.78;33.92;;;;;;;6.38;65.86;102010.81;5055963;28;20458;-66
2021/03/08 11:09:01;;;;;;;64.30;34.47;;;;;;;6.44;66.27;102017.81;5056643;28;20044;-63
2021/03/08 11:11:28;;;;;;;57.63;32.75;;;;;;;6.43;64.92;102013.50;5054892;28;20044;-66
2021/03/08 11:13:58;;;;;;;60.15;33.22;;;;;;;6.37;65.93;102015.13;5057601;28;20782;-65
2021/03/08 11:16:24;;;;;;;62.50;33.42;;;;;;;6.48;66.14;102015.31;5065186;28;20076;-66
2021/03/08 11:18:50;;;;;;;60.63;32.58;;;;;;;6.62;66.08;102022.47;5065234;28;20059;-66
2021/03/08 11:21:26;;;;;;;59.30;33.22;;;;;;;6.72;65.42;102007.97;5066455;28;20040;-66
2021/03/08 11:23:53;;;;;;;59.45;32.63;;;;;;;6.81;64.89;102014.19;5062257;28;20098;-65
2021/03/08 11:26:20;;;;;;;59.95;33.33;;;;;;;6.81;63.79;102016.78;5064306;28;20153;-65
2021/03/08 11:28:46;;;;;;;55.53;32.10;;;;;;;6.80;64.13;102012.44;5063319;28;20072;-66